Terminal Aerodrome Forecast
Issued by NWS

Home | Current Version | Previous Version | Text Only | Print | Product List | Glossary On
Versions: 1 2 3 4 5 6 7 8 9 10 11 12 13
000
FTUS43 KEAX 241126
TAFMKC
TAF
KMKC 241126Z 2412/2512 22008KT P6SM SCT200
     FM242200 VRB04KT P6SM VCTS SCT050CB
      TEMPO 2500/2503 4SM -TSRA SCT030CB BKN050
     FM250600 03005KT P6SM BKN100=

USA.gov is the U.S. government's official web portal to all federal, state and local government web resources and services.